Time;durP1;ratioP1;P1;durP2;ratioP2;P2;SDS_P1;SDS_P2;PMS_P1;PMS_P2;Temp;Humidity;BMP_temperature;BMP_pressure;BME280_temperature;BME280_humidity;BME280_pressure;Samples;Min_cycle;Max_cycle;Signal;HPM_P1;HPM_P2
2022/12/15 00:40:29;;;;;;;308.77;136.93;;;3.90;99.90;;;;;;5094797;28;20409;-77
2022/12/15 00:42:55;;;;;;;335.20;146.18;;;3.80;99.90;;;;;;5094607;28;20028;-77
2022/12/15 00:46:53;;;;;;;368.20;149.80;;;3.80;99.90;;;;;;5094909;28;20031;-77
2022/12/15 00:48:06;;;;;;;396.70;155.20;;;3.60;99.90;;;;;;5094860;28;20461;-76
2022/12/15 00:50:50;;;;;;;417.95;161.55;;;3.60;99.90;;;;;;5094369;28;20063;-76
2022/12/15 01:20:43;;;;;;;305.02;129.10;;;3.50;99.90;;;;;;5093961;28;20048;-76
2022/12/15 01:23:09;;;;;;;317.45;130.20;;;3.50;99.90;;;;;;5094005;28;20035;-76
2022/12/15 01:25:38;;;;;;;385.48;148.60;;;3.50;99.90;;;;;;5093901;28;20059;-76
2022/12/15 01:28:04;;;;;;;352.35;143.65;;;3.40;99.90;;;;;;5094020;28;20035;-77
2022/12/15 01:30:30;;;;;;;346.10;141.05;;;3.40;99.90;;;;;;5093597;28;20098;-76
2022/12/15 01:32:56;;;;;;;313.13;132.07;;;3.40;99.90;;;;;;5093226;28;20028;-76
2022/12/15 01:35:22;;;;;;;459.77;191.38;;;3.40;99.90;;;;;;5093879;28;20509;-76
2022/12/15 01:37:48;;;;;;;399.05;161.35;;;3.40;99.90;;;;;;5093999;28;20089;-77
2022/12/15 01:43:00;;;;;;;410.60;166.68;;;3.20;99.90;;;;;;5093866;28;20382;-76
2022/12/15 01:45:29;;;;;;;415.35;176.05;;;3.30;99.90;;;;;;5093508;28;20034;-76
2022/12/15 01:48:08;;;;;;;402.10;163.68;;;3.20;99.90;;;;;;5093882;28;20157;-77
2022/12/15 01:50:40;;;;;;;424.75;176.90;;;3.30;99.90;;;;;;5093225;28;20035;-77
2022/12/15 01:53:07;;;;;;;380.35;155.45;;;3.30;99.90;;;;;;5093868;28;20031;-77
2022/12/15 01:55:34;;;;;;;378.48;161.10;;;3.40;99.90;;;;;;5093546;28;20036;-77
2022/12/15 01:58:05;;;;;;;357.75;149.20;;;3.40;99.90;;;;;;5093397;28;20055;-77
2022/12/15 02:00:32;;;;;;;362.10;155.05;;;3.50;99.90;;;;;;5093131;28;20024;-77
2022/12/15 02:03:00;;;;;;;345.40;142.27;;;3.60;99.90;;;;;;5093366;28;20038;-77
2022/12/15 02:05:28;;;;;;;339.52;147.82;;;3.70;99.90;;;;;;5093038;28;20040;-77
2022/12/15 02:07:55;;;;;;;435.27;200.88;;;3.70;99.90;;;;;;5093286;28;20038;-77
2022/12/15 02:10:25;;;;;;;399.58;180.48;;;3.70;99.90;;;;;;5093001;28;20048;-77
2022/12/15 02:13:07;;;;;;;407.52;187.15;;;3.70;99.90;;;;;;5093225;28;20020;-77
2022/12/15 02:15:41;;;;;;;360.02;159.77;;;3.70;99.90;;;;;;5092950;28;20036;-77
2022/12/15 02:18:23;;;;;;;404.23;185.25;;;3.80;99.90;;;;;;5093104;28;20032;-77
2022/12/15 02:20:55;;;;;;;371.60;152.27;;;3.70;99.90;;;;;;5093004;28;20341;-77
2022/12/15 02:23:50;;;;;;;326.45;143.23;;;3.70;99.90;;;;;;5092944;28;20064;-77
2022/12/15 02:26:35;;;;;;;345.73;146.90;;;3.80;99.90;;;;;;5075352;28;20485;-77
2022/12/15 02:29:21;;;;;;;390.88;156.00;;;3.80;99.90;;;;;;5092809;28;20032;-77
2022/12/15 02:32:05;;;;;;;349.15;147.52;;;3.60;99.90;;;;;;5092778;28;20032;-77
2022/12/15 02:34:43;;;;;;;345.98;149.40;;;3.60;99.90;;;;;;5092679;28;20066;-77
2022/12/15 02:37:32;;;;;;;360.70;151.75;;;3.50;99.90;;;;;;5092914;28;20157;-77
2022/12/15 02:39:58;;;;;;;386.23;157.20;;;3.50;99.90;;;;;;5092485;28;20581;-77
2022/12/15 02:42:26;;;;;;;364.13;149.38;;;3.50;99.90;;;;;;5092409;28;20478;-77
2022/12/15 02:45:07;;;;;;;380.05;161.93;;;3.50;99.90;;;;;;5092912;28;20039;-77
2022/12/15 02:47:51;;;;;;;372.73;150.90;;;3.60;99.90;;;;;;5092709;28;20036;-77
2022/12/15 02:50:58;;;;;;;334.33;142.30;;;3.70;99.90;;;;;;5092492;28;20035;-77
2022/12/15 02:53:24;;;;;;;332.83;141.65;;;3.80;99.90;;;;;;5087487;28;20518;-77
2022/12/15 02:56:13;;;;;;;340.48;139.88;;;3.80;99.90;;;;;;5092661;28;20427;-78
2022/12/15 02:58:51;;;;;;;316.83;134.00;;;3.80;99.90;;;;;;5092437;28;20485;-77
2022/12/15 03:01:17;;;;;;;348.38;144.25;;;3.90;99.90;;;;;;5074599;28;20020;-77
2022/12/15 03:03:44;;;;;;;357.27;145.15;;;3.80;99.90;;;;;;5092388;28;20432;-77
2022/12/15 03:06:10;;;;;;;358.45;143.15;;;3.80;99.90;;;;;;5092112;28;20499;-77
2022/12/15 03:08:36;;;;;;;352.08;144.32;;;3.80;99.90;;;;;;5092263;28;20044;-77
2022/12/15 03:11:02;;;;;;;405.33;152.70;;;3.80;99.90;;;;;;5072344;28;20078;-77
2022/12/15 03:13:28;;;;;;;427.55;158.95;;;3.80;99.90;;;;;;5072052;28;20098;-77
2022/12/15 03:15:54;;;;;;;441.45;166.88;;;3.80;99.90;;;;;;5072320;28;20028;-77
2022/12/15 03:18:20;;;;;;;495.20;172.70;;;3.90;99.90;;;;;;5072392;28;20048;-77
2022/12/15 03:20:49;;;;;;;488.27;169.80;;;3.90;99.90;;;;;;5072069;28;20067;-77
2022/12/15 03:23:15;;;;;;;429.63;158.20;;;4.00;99.90;;;;;;5072283;28;20132;-77
2022/12/15 03:25:43;;;;;;;443.20;159.82;;;4.00;99.90;;;;;;5071985;28;20033;-77
2022/12/15 03:28:09;;;;;;;440.17;160.43;;;3.90;99.90;;;;;;5072171;28;20025;-77
2022/12/15 03:30:34;;;;;;;482.42;171.10;;;3.80;99.90;;;;;;5053864;28;20044;-77
2022/12/15 03:33:01;;;;;;;486.52;168.45;;;3.80;99.90;;;;;;5071703;28;20035;-77
2022/12/15 03:35:26;;;;;;;466.35;171.20;;;3.80;99.90;;;;;;5071996;28;20427;-77
2022/12/15 03:37:52;;;;;;;506.17;176.20;;;3.80;99.90;;;;;;5072180;28;20055;-77
2022/12/15 03:40:18;;;;;;;475.33;171.43;;;3.70;99.90;;;;;;5071974;28;20059;-77
2022/12/15 03:42:50;;;;;;;500.42;169.75;;;3.70;99.90;;;;;;5071634;28;20423;-77
2022/12/15 03:45:18;;;;;;;553.15;180.88;;;3.70;99.90;;;;;;5071826;28;20063;-77
2022/12/15 03:47:45;;;;;;;523.92;173.60;;;3.80;99.90;;;;;;5071736;28;20036;-77
2022/12/15 03:50:12;;;;;;;500.90;172.50;;;3.80;99.90;;;;;;5076279;28;20032;-77
2022/12/15 03:52:38;;;;;;;473.00;163.27;;;3.90;99.90;;;;;;5091861;28;20466;-76
2022/12/15 03:55:06;;;;;;;517.65;173.27;;;3.90;99.90;;;;;;5091958;28;20036;-77
2022/12/15 03:57:32;;;;;;;482.77;168.27;;;3.90;99.90;;;;;;5094716;28;20027;-77
2022/12/15 03:59:58;;;;;;;519.05;167.38;;;3.90;99.90;;;;;;5096099;28;20028;-77
2022/12/15 04:02:24;;;;;;;510.02;171.95;;;3.90;99.90;;;;;;5096715;28;20527;-77
2022/12/15 04:04:50;;;;;;;521.00;171.48;;;4.00;99.90;;;;;;5094306;28;20036;-77
2022/12/15 04:07:16;;;;;;;550.92;176.10;;;4.00;99.90;;;;;;5095339;28;20481;-77
2022/12/15 04:09:42;;;;;;;574.22;175.95;;;3.90;99.90;;;;;;5095124;28;20032;-77
2022/12/15 04:12:10;;;;;;;587.50;180.60;;;4.00;99.90;;;;;;5077602;28;20032;-77
2022/12/15 04:14:41;;;;;;;605.15;192.25;;;4.00;99.90;;;;;;5095229;28;20032;-77
2022/12/15 04:17:10;;;;;;;;;;;4.10;99.90;;;;;;5095993;28;20048;-77
2022/12/15 04:22:21;;;;;;;528.60;171.85;;;4.10;99.90;;;;;;5095203;28;20044;-77
2022/12/15 05:33:25;;;;;;;299.55;89.80;;;3.50;99.90;;;;;;5093703;28;20035;-76
2022/12/15 05:35:51;;;;;;;240.20;82.00;;;3.50;99.90;;;;;;5093934;28;20020;-76
2022/12/15 05:38:17;;;;;;;264.98;94.20;;;3.50;99.90;;;;;;5094084;28;20424;-77
2022/12/15 05:40:43;;;;;;;256.58;94.05;;;3.50;99.90;;;;;;5093469;28;20054;-76
2022/12/15 05:43:09;;;;;;;217.07;88.88;;;3.50;99.90;;;;;;5093909;28;20024;-76
2022/12/15 05:45:34;;;;;;;222.90;89.43;;;3.50;99.90;;;;;;5093364;28;20024;-76
2022/12/15 05:48:00;;;;;;;286.55;96.85;;;3.50;99.90;;;;;;5093581;28;20041;-76
2022/12/15 05:50:26;;;;;;;308.55;104.97;;;3.50;99.90;;;;;;5093178;28;20587;-76
2022/12/15 05:52:53;;;;;;;213.75;86.95;;;3.50;99.90;;;;;;5093403;28;20435;-76
2022/12/15 05:55:19;;;;;;;214.57;86.63;;;3.60;99.90;;;;;;5093492;28;20401;-76
2022/12/15 05:57:51;;;;;;;223.93;88.97;;;3.60;99.90;;;;;;5093361;28;20073;-76
2022/12/15 06:00:18;;;;;;;207.13;87.20;;;3.60;99.90;;;;;;5093261;28;20024;-77
2022/12/15 06:02:44;;;;;;;367.88;104.57;;;3.70;99.90;;;;;;5093234;28;20032;-77
2022/12/15 06:05:09;;;;;;;284.00;98.88;;;3.70;99.90;;;;;;5093113;28;20036;-77
2022/12/15 06:07:36;;;;;;;199.30;78.55;;;3.60;99.90;;;;;;5093239;28;20124;-76
2022/12/15 06:10:03;;;;;;;199.55;79.63;;;3.70;99.90;;;;;;5093048;28;20020;-76
2022/12/15 06:12:29;;;;;;;197.80;77.38;;;3.80;99.90;;;;;;5093067;28;20432;-77
2022/12/15 06:14:55;;;;;;;225.57;86.35;;;3.70;99.90;;;;;;5093286;28;20027;-76
2022/12/15 06:17:21;;;;;;;156.38;65.03;;;3.70;99.90;;;;;;5091544;28;20028;-76
2022/12/15 06:19:47;;;;;;;143.93;61.63;;;3.70;99.90;;;;;;5091241;28;20044;-76
2022/12/15 06:22:13;;;;;;;136.60;61.78;;;3.70;99.90;;;;;;5070222;28;20034;-76
2022/12/15 06:24:38;;;;;;;147.10;63.53;;;3.70;99.90;;;;;;5069073;28;20409;-77
2022/12/15 06:27:04;;;;;;;157.32;67.15;;;3.70;99.90;;;;;;5075431;28;20038;-76
2022/12/15 06:29:30;;;;;;;134.75;61.45;;;3.70;99.90;;;;;;5075403;28;20098;-76
2022/12/15 06:31:56;;;;;;;126.63;58.90;;;3.80;99.90;;;;;;5060679;28;20026;-76
2022/12/15 06:34:25;;;;;;;129.02;59.85;;;3.80;99.90;;;;;;5070423;28;20032;-76
2022/12/15 06:36:52;;;;;;;133.43;57.25;;;3.90;99.90;;;;;;5072690;28;20026;-76
2022/12/15 06:39:18;;;;;;;136.02;60.65;;;3.80;99.90;;;;;;5074743;28;20060;-76
2022/12/15 06:41:44;;;;;;;194.30;69.20;;;3.70;99.90;;;;;;5075998;28;20032;-76
2022/12/15 06:44:14;;;;;;;162.55;63.97;;;3.60;99.90;;;;;;5081537;28;20542;-76
2022/12/15 06:46:41;;;;;;;153.07;63.42;;;3.70;99.90;;;;;;5078879;28;20043;-76
2022/12/15 06:49:07;;;;;;;142.43;64.10;;;3.80;99.90;;;;;;5079855;28;20245;-76
2022/12/15 06:51:33;;;;;;;154.50;66.95;;;3.70;99.90;;;;;;5074460;28;20429;-76
2022/12/15 06:54:11;;;;;;;148.35;64.95;;;3.80;99.90;;;;;;5066340;28;20397;-77
2022/12/15 06:56:39;;;;;;;142.70;64.55;;;3.70;99.90;;;;;;5071396;28;20069;-76
2022/12/15 06:59:06;;;;;;;170.45;67.90;;;3.80;99.90;;;;;;5074240;28;20031;-76
2022/12/15 07:01:32;;;;;;;162.80;68.57;;;3.70;99.90;;;;;;5071964;28;20025;-77
2022/12/15 07:04:04;;;;;;;157.88;67.95;;;3.80;99.90;;;;;;5081338;28;20428;-76
2022/12/15 07:06:36;;;;;;;159.57;65.60;;;3.70;99.90;;;;;;5073449;28;20036;-76
2022/12/15 07:09:06;;;;;;;158.63;64.85;;;3.70;99.90;;;;;;5072941;28;20078;-75
2022/12/15 07:11:34;;;;;;;222.20;76.75;;;3.70;99.90;;;;;;5070457;28;20054;-75
2022/12/15 07:14:00;;;;;;;155.68;67.03;;;3.80;99.90;;;;;;5071836;28;20129;-74
2022/12/15 07:16:26;;;;;;;163.77;70.82;;;3.90;99.90;;;;;;5071180;28;20024;-74
2022/12/15 07:18:51;;;;;;;149.93;65.35;;;3.90;99.90;;;;;;5068854;28;20028;-77
2022/12/15 07:21:35;;;;;;;194.88;73.13;;;3.90;99.90;;;;;;5079754;28;20051;-75
2022/12/15 07:24:01;;;;;;;201.23;76.55;;;3.90;99.90;;;;;;5070969;28;20106;-76
2022/12/15 07:26:27;;;;;;;172.55;73.22;;;3.90;99.90;;;;;;5064266;28;20055;-76
2022/12/15 07:28:56;;;;;;;175.98;73.97;;;4.00;99.90;;;;;;5064216;28;20028;-77
2022/12/15 07:31:22;;;;;;;200.38;78.07;;;4.10;99.90;;;;;;5075328;28;20024;-78
2022/12/15 07:33:50;;;;;;;230.80;78.53;;;4.00;99.90;;;;;;5071828;28;20028;-77
2022/12/15 07:36:17;;;;;;;205.50;80.75;;;3.90;99.90;;;;;;5068364;28;20032;-76
2022/12/15 07:38:44;;;;;;;213.15;82.13;;;3.90;99.90;;;;;;5074815;28;20474;-75
2022/12/15 07:41:10;;;;;;;169.27;70.53;;;4.00;99.90;;;;;;5077301;28;20400;-76
2022/12/15 07:43:36;;;;;;;232.25;79.07;;;4.00;99.90;;;;;;5071642;28;20382;-77
2022/12/15 07:46:04;;;;;;;169.02;69.07;;;4.00;99.90;;;;;;5071536;28;20113;-77
2022/12/15 07:48:29;;;;;;;202.40;73.72;;;4.00;99.90;;;;;;5066147;28;20445;-76
2022/12/15 07:50:56;;;;;;;219.75;80.07;;;4.00;99.90;;;;;;5051963;28;20042;-77
2022/12/15 07:53:26;;;;;;;220.88;75.82;;;4.10;99.90;;;;;;5069960;28;20027;-77
2022/12/15 07:56:00;;;;;;;192.65;77.35;;;4.00;99.90;;;;;;5069227;28;20020;-78
2022/12/15 07:58:27;;;;;;;207.65;76.00;;;4.10;99.90;;;;;;5072377;28;20101;-77
2022/12/15 08:00:57;;;;;;;223.15;80.72;;;4.10;99.90;;;;;;5077510;28;20035;-76
2022/12/15 08:03:23;;;;;;;171.45;71.43;;;4.00;99.90;;;;;;5075739;28;20024;-76
2022/12/15 08:05:49;;;;;;;163.40;65.38;;;4.10;99.90;;;;;;5076766;28;20106;-76
2022/12/15 08:08:17;;;;;;;148.30;62.45;;;4.00;99.90;;;;;;5064885;28;20458;-76
2022/12/15 08:10:43;;;;;;;143.23;58.20;;;4.10;99.90;;;;;;5082998;28;20444;-77
2022/12/15 08:13:09;;;;;;;131.85;59.53;;;4.10;99.90;;;;;;5074698;28;20833;-77
2022/12/15 08:15:36;;;;;;;171.98;69.70;;;4.10;99.90;;;;;;5077422;28;20032;-77
2022/12/15 08:18:03;;;;;;;154.82;63.03;;;4.20;99.90;;;;;;5075462;28;20024;-77
2022/12/15 08:20:30;;;;;;;146.20;66.88;;;4.30;99.90;;;;;;5062736;28;20541;-77
2022/12/15 08:22:56;;;;;;;166.68;66.68;;;4.40;99.90;;;;;;5055781;28;20062;-77
2022/12/15 08:25:22;;;;;;;167.60;71.32;;;4.50;99.90;;;;;;5058590;28;20034;-77
2022/12/15 08:27:51;;;;;;;146.57;65.45;;;4.50;99.90;;;;;;5056729;28;20032;-78
2022/12/15 08:30:17;;;;;;;139.73;61.55;;;4.40;99.90;;;;;;5060223;28;20130;-76
2022/12/15 08:32:45;;;;;;;127.82;58.90;;;4.60;99.90;;;;;;5077191;28;20054;-76
2022/12/15 08:35:18;;;;;;;128.55;59.50;;;4.60;99.90;;;;;;5061397;28;20090;-76
2022/12/15 08:37:44;;;;;;;144.38;62.05;;;4.70;99.90;;;;;;5055385;28;20088;-76
2022/12/15 08:40:10;;;;;;;159.23;65.88;;;4.80;99.90;;;;;;5053798;28;20064;-77
2022/12/15 08:42:48;;;;;;;164.55;67.85;;;4.80;99.90;;;;;;5054878;28;20025;-79
2022/12/15 08:45:15;;;;;;;154.00;66.32;;;4.60;99.90;;;;;;5055454;28;20194;-78
2022/12/15 08:47:41;;;;;;;133.40;61.63;;;4.60;99.90;;;;;;5035264;28;20100;-77
2022/12/15 08:50:07;;;;;;;142.90;61.85;;;4.70;99.90;;;;;;5061027;28;20033;-77
2022/12/15 08:52:33;;;;;;;145.15;65.22;;;4.90;99.90;;;;;;5046592;28;20078;-78
2022/12/15 08:54:59;;;;;;;133.82;62.28;;;4.80;99.90;;;;;;5042858;28;20032;-78
2022/12/15 08:57:26;;;;;;;136.82;60.25;;;4.90;99.90;;;;;;5041697;28;20071;-78
2022/12/15 08:59:52;;;;;;;146.27;66.03;;;5.00;99.90;;;;;;5034306;28;20025;-77
2022/12/15 09:02:18;;;;;;;170.02;69.15;;;5.00;99.90;;;;;;5050199;28;20044;-78
2022/12/15 09:04:44;;;;;;;165.30;68.00;;;4.90;99.90;;;;;;5048868;28;20029;-78
2022/12/15 09:07:10;;;;;;;159.30;69.45;;;5.00;99.90;;;;;;5041311;28;20041;-78
2022/12/15 09:09:36;;;;;;;182.27;71.97;;;5.10;99.90;;;;;;5046392;28;20028;-78
2022/12/15 09:12:03;;;;;;;168.15;71.50;;;4.90;99.90;;;;;;5061611;28;20094;-78
2022/12/15 09:14:29;;;;;;;148.13;65.85;;;5.10;99.90;;;;;;5052765;28;20799;-77
2022/12/15 09:16:54;;;;;;;141.10;64.38;;;5.10;99.90;;;;;;5055102;28;20024;-78
2022/12/15 09:19:20;;;;;;;147.50;64.60;;;5.10;99.90;;;;;;5056689;28;20046;-77
2022/12/15 09:21:47;;;;;;;153.77;67.57;;;5.20;99.90;;;;;;5095723;28;20390;-78
2022/12/15 09:24:13;;;;;;;144.15;62.33;;;5.20;99.90;;;;;;5094122;28;20031;-80
2022/12/15 09:26:41;;;;;;;144.80;63.58;;;5.20;99.90;;;;;;5095121;28;20115;-79
2022/12/15 09:29:11;;;;;;;143.63;63.22;;;5.30;99.90;;;;;;5096123;28;20031;-78
2022/12/15 09:31:37;;;;;;;142.13;63.65;;;5.30;99.90;;;;;;5090386;28;20357;-78
2022/12/15 09:34:03;;;;;;;156.32;66.75;;;5.40;99.90;;;;;;5091919;28;20055;-77
2022/12/15 09:36:32;;;;;;;162.02;65.28;;;5.40;99.90;;;;;;5094601;28;20054;-77
2022/12/15 09:39:00;;;;;;;154.55;80.25;;;5.50;99.90;;;;;;5125327;27;20039;-77
2022/12/15 09:41:30;;;;;;;138.75;65.43;;;5.50;99.90;;;;;;5095445;28;20019;-78
2022/12/15 09:44:02;;;;;;;135.43;61.92;;;5.70;99.90;;;;;;5092184;28;20028;-77
2022/12/15 09:46:37;;;;;;;155.30;61.58;;;5.70;99.90;;;;;;5095258;28;20031;-76
2022/12/15 09:49:20;;;;;;;160.20;66.00;;;5.70;99.90;;;;;;5084142;28;20030;-77
2022/12/15 09:51:59;;;;;;;142.02;59.65;;;5.60;99.90;;;;;;5094795;28;20519;-77
2022/12/15 09:54:30;;;;;;;152.32;63.65;;;5.60;99.90;;;;;;5088303;28;20084;-77
2022/12/15 09:56:59;;;;;;;157.68;68.13;;;5.50;99.90;;;;;;5072240;28;20488;-77
2022/12/15 09:59:36;;;;;;;170.73;71.82;;;5.50;99.90;;;;;;5086569;28;20469;-77
2022/12/15 10:02:24;;;;;;;158.10;76.53;;;5.40;99.90;;;;;;5088600;28;20114;-77
2022/12/15 10:05:15;;;;;;;147.45;61.65;;;5.60;99.90;;;;;;5089373;28;20028;-77
2022/12/15 10:07:45;;;;;;;157.45;64.97;;;5.60;99.90;;;;;;5089552;28;20032;-77
2022/12/15 10:10:32;;;;;;;141.05;62.97;;;5.70;99.90;;;;;;5088353;28;20074;-77
2022/12/15 10:13:03;;;;;;;167.23;68.35;;;5.80;99.90;;;;;;5085697;27;20031;-78
2022/12/15 10:15:56;;;;;;;160.07;72.05;;;5.90;99.90;;;;;;5083320;27;20521;-77
2022/12/15 10:19:05;;;;;;;162.07;69.47;;;5.90;99.90;;;;;;5080587;27;20030;-78
2022/12/15 10:21:32;;;;;;;166.20;69.07;;;5.90;99.90;;;;;;5074252;28;20043;-77
2022/12/15 10:24:16;;;;;;;165.15;72.93;;;6.10;99.90;;;;;;5083851;28;20615;-77
2022/12/15 10:26:47;;;;;;;175.52;74.60;;;6.00;99.90;;;;;;5094178;28;20087;-78
2022/12/15 10:29:32;;;;;;;;;;;6.00;99.90;;;;;;5092502;28;20055;-77
2022/12/15 10:32:06;;;;;;;190.77;79.97;;;6.20;99.90;;;;;;5085462;28;20224;-77
2022/12/15 10:34:35;;;;;;;194.38;83.07;;;6.10;99.90;;;;;;5083060;28;20078;-77
2022/12/15 10:37:02;;;;;;;176.15;72.95;;;6.00;99.90;;;;;;5090725;28;20547;-77
2022/12/15 10:39:39;;;;;;;183.70;74.70;;;6.00;99.90;;;;;;5093513;28;20055;-78
2022/12/15 10:42:19;;;;;;;179.10;75.63;;;6.00;99.90;;;;;;5087963;28;20617;-77
2022/12/15 10:44:54;;;;;;;170.75;73.13;;;6.10;99.90;;;;;;5083165;28;20087;-77
2022/12/15 10:47:26;;;;;;;181.63;76.70;;;6.20;99.90;;;;;;5070911;28;20398;-77
2022/12/15 10:49:54;;;;;;;173.38;71.85;;;6.30;99.90;;;;;;5092699;28;20030;-77
2022/12/15 10:52:26;;;;;;;173.95;73.05;;;6.30;99.90;;;;;;5085677;28;20028;-77
2022/12/15 10:54:53;;;;;;;168.05;72.25;;;6.40;99.90;;;;;;5092698;28;20020;-77
2022/12/15 10:57:30;;;;;;;147.98;65.50;;;6.40;99.90;;;;;;5094745;28;20025;-77
2022/12/15 11:00:14;;;;;;;166.02;74.43;;;6.50;99.90;;;;;;5082657;28;20032;-77
2022/12/15 11:02:41;;;;;;;161.73;68.78;;;6.40;99.90;;;;;;5094650;28;20738;-77
2022/12/15 11:05:16;;;;;;;167.82;72.28;;;6.40;99.90;;;;;;5094101;28;20140;-78
2022/12/15 11:07:53;;;;;;;192.48;79.90;;;6.50;99.90;;;;;;5094479;28;20059;-78
2022/12/15 11:13:21;;;;;;;172.38;71.70;;;6.50;99.90;;;;;;5096437;28;20035;-76
2022/12/15 11:15:50;;;;;;;172.57;71.07;;;6.60;99.90;;;;;;5098177;28;20023;-77
2022/12/15 11:18:36;;;;;;;163.02;66.82;;;6.70;99.90;;;;;;5097045;28;20385;-77
2022/12/15 11:21:16;;;;;;;160.98;66.28;;;6.70;99.90;;;;;;5095399;27;20139;-78
2022/12/15 11:23:45;;;;;;;158.55;68.28;;;6.80;99.90;;;;;;5096364;27;20062;-78
2022/12/15 11:26:16;;;;;;;170.13;70.00;;;6.60;99.90;;;;;;5098572;28;20042;-77
2022/12/15 11:28:53;;;;;;;177.70;74.05;;;6.70;99.90;;;;;;5097165;28;20035;-78
2022/12/15 11:31:37;;;;;;;174.50;74.85;;;6.80;99.90;;;;;;5096721;28;20024;-78
2022/12/15 11:34:14;;;;;;;187.35;74.50;;;6.70;99.90;;;;;;5079509;28;20024;-79
2022/12/15 11:36:39;;;;;;;175.80;70.95;;;6.70;99.90;;;;;;5097949;27;20512;-78
2022/12/15 11:39:19;;;;;;;169.48;68.97;;;6.70;99.90;;;;;;5095021;28;20024;-78
2022/12/15 11:42:03;;;;;;;185.80;74.10;;;6.70;99.90;;;;;;5097146;28;20088;-78
2022/12/15 11:44:50;;;;;;;194.48;79.75;;;6.80;99.90;;;;;;5097764;28;20055;-78
2022/12/15 11:47:31;;;;;;;200.77;84.85;;;6.70;99.90;;;;;;5096724;27;20026;-78
2022/12/15 11:50:07;;;;;;;210.70;89.32;;;6.60;99.90;;;;;;5097176;28;20035;-78
2022/12/15 11:52:54;;;;;;;226.25;91.00;;;6.60;99.90;;;;;;5083361;27;20039;-81
2022/12/15 11:55:42;;;;;;;238.90;93.25;;;6.70;99.90;;;;;;5094715;28;20780;-80
2022/12/15 11:58:30;;;;;;;248.20;106.55;;;6.90;99.90;;;;;;5077755;28;20035;-78
2022/12/15 12:01:03;;;;;;;249.50;105.75;;;7.00;99.90;;;;;;5064689;27;20040;-77
2022/12/15 12:03:48;;;;;;;275.17;111.03;;;6.90;99.90;;;;;;5095667;28;20023;-76
2022/12/15 12:06:28;;;;;;;277.90;116.05;;;6.90;99.90;;;;;;5078161;28;20030;-77
2022/12/15 12:09:11;;;;;;;287.20;117.78;;;7.00;99.90;;;;;;5078775;28;20472;-76
2022/12/15 12:11:44;;;;;;;298.88;120.28;;;7.00;99.90;;;;;;5094714;28;20035;-77
2022/12/15 12:14:39;;;;;;;304.23;122.75;;;7.00;99.90;;;;;;5092982;28;20031;-77
2022/12/15 12:17:37;;;;;;;283.30;115.18;;;7.00;99.90;;;;;;5069267;28;20518;-76
2022/12/15 12:20:13;;;;;;;250.27;102.10;;;6.90;99.90;;;;;;5073488;28;20051;-76
2022/12/15 12:22:45;;;;;;;284.35;111.78;;;6.90;99.90;;;;;;5096991;28;20027;-76
2022/12/15 12:25:21;;;;;;;268.80;113.65;;;6.90;99.90;;;;;;5092391;28;20039;-76
2022/12/15 12:28:02;;;;;;;273.13;108.28;;;6.90;99.90;;;;;;5091534;28;20031;-76
2022/12/15 12:30:42;;;;;;;273.40;111.85;;;6.90;99.90;;;;;;5090830;28;20224;-76
2022/12/15 12:33:49;;;;;;;273.52;105.32;;;7.00;99.90;;;;;;5082805;27;20097;-76
2022/12/15 12:36:15;;;;;;;254.73;102.97;;;6.90;99.90;;;;;;5044473;28;20035;-76
2022/12/15 12:38:51;;;;;;;287.40;111.47;;;6.80;99.90;;;;;;5093160;28;20055;-75
2022/12/15 12:41:24;;;;;;;290.50;114.78;;;6.90;99.90;;;;;;5077021;28;20122;-76
2022/12/15 12:44:07;;;;;;;277.20;115.57;;;6.60;99.90;;;;;;5092604;28;20028;-76
2022/12/15 12:46:39;;;;;;;298.23;112.43;;;6.70;99.90;;;;;;5091093;28;20040;-76
2022/12/15 12:49:17;;;;;;;244.88;97.40;;;6.70;99.90;;;;;;5080988;28;20107;-76
2022/12/15 12:51:51;;;;;;;257.58;107.10;;;6.70;99.90;;;;;;5087438;28;20112;-76
2022/12/15 12:54:35;;;;;;;244.70;106.43;;;6.80;99.90;;;;;;5082347;28;20445;-76
2022/12/15 12:57:27;;;;;;;264.73;106.10;;;6.80;99.90;;;;;;5090762;28;20028;-76
2022/12/15 13:00:13;;;;;;;243.27;99.13;;;6.80;99.90;;;;;;5075117;28;20032;-76
2022/12/15 13:02:56;;;;;;;238.40;100.32;;;6.70;99.90;;;;;;5084377;28;20027;-76
2022/12/15 13:05:31;;;;;;;223.15;88.47;;;6.90;99.90;;;;;;5084052;28;20043;-75
2022/12/15 13:08:18;;;;;;;211.60;86.93;;;6.80;99.90;;;;;;5087156;28;20065;-76
2022/12/15 13:10:47;;;;;;;204.55;84.30;;;6.60;99.90;;;;;;5088732;27;20479;-76
2022/12/15 13:13:31;;;;;;;220.93;88.07;;;6.60;99.90;;;;;;5089170;28;20028;-76
2022/12/15 13:16:38;;;;;;;197.82;83.43;;;6.50;99.90;;;;;;5092148;28;20024;-75
2022/12/15 13:19:07;;;;;;;179.35;78.10;;;6.50;99.90;;;;;;5014174;28;20033;-76
2022/12/15 13:21:42;;;;;;;181.48;78.18;;;6.70;99.90;;;;;;5020601;28;20060;-76
2022/12/15 13:24:24;;;;;;;219.50;84.95;;;6.70;99.90;;;;;;5028791;28;20174;-76
2022/12/15 13:26:52;;;;;;;221.15;87.82;;;6.70;99.90;;;;;;5025309;28;20091;-76
2022/12/15 13:29:22;;;;;;;250.65;93.78;;;6.70;99.90;;;;;;5014753;28;20029;-76
2022/12/15 13:31:49;;;;;;;254.13;93.45;;;6.70;99.90;;;;;;5018884;28;20025;-76
2022/12/15 13:34:20;;;;;;;294.60;98.63;;;6.70;99.90;;;;;;5020348;28;20415;-76
2022/12/15 13:36:49;;;;;;;286.20;101.22;;;6.60;99.90;;;;;;5019867;28;20691;-76
2022/12/15 13:39:15;;;;;;;264.40;97.35;;;6.60;99.90;;;;;;5014428;28;20033;-76
2022/12/15 13:41:47;;;;;;;316.42;103.10;;;6.60;99.90;;;;;;5019651;28;20075;-76
2022/12/15 13:44:50;;;;;;;298.35;103.75;;;6.50;99.90;;;;;;5020534;28;20119;-77
2022/12/15 13:47:21;;;;;;;389.33;104.32;;;6.50;99.90;;;;;;5024160;28;20832;-76
2022/12/15 13:49:48;;;;;;;;;;;6.20;99.90;;;;;;5054493;28;20054;-76
2022/12/15 13:52:31;;;;;;;280.05;100.15;;;6.20;99.90;;;;;;5091251;28;20469;-76
2022/12/15 13:55:04;;;;;;;282.27;96.22;;;6.20;99.90;;;;;;5092570;27;20024;-77
2022/12/15 13:57:38;;;;;;;326.05;95.75;;;6.30;99.90;;;;;;5093315;28;20049;-77
2022/12/15 14:00:18;;;;;;;323.58;102.20;;;6.30;99.90;;;;;;5089298;27;20558;-77
2022/12/15 14:02:44;;;;;;;306.90;96.93;;;6.40;99.90;;;;;;5089736;28;20041;-76
2022/12/15 14:05:11;;;;;;;291.17;98.43;;;6.40;99.90;;;;;;5071411;28;20062;-76
2022/12/15 14:07:56;;;;;;;387.50;111.90;;;6.20;99.90;;;;;;5072898;28;20597;-76
2022/12/15 14:10:24;;;;;;;267.58;99.97;;;6.10;99.90;;;;;;5087177;28;20108;-76
2022/12/15 14:12:54;;;;;;;344.25;104.88;;;6.10;99.90;;;;;;5093322;28;20094;-75
2022/12/15 14:15:27;;;;;;;316.17;99.05;;;6.10;99.90;;;;;;5088899;28;20050;-75
2022/12/15 14:17:56;;;;;;;358.80;101.93;;;6.00;99.90;;;;;;5084314;28;20094;-77
2022/12/15 14:20:30;;;;;;;339.27;107.97;;;5.90;99.90;;;;;;5092082;28;20066;-79
2022/12/15 14:22:57;;;;;;;411.67;121.90;;;6.00;99.90;;;;;;5108594;28;20028;-79
2022/12/15 14:25:28;;;;;;;498.10;135.30;;;6.00;99.90;;;;;;5115736;27;20023;-78
2022/12/15 14:27:54;;;;;;;;;;;6.10;99.90;;;;;;5115386;28;20031;-81
2022/12/15 14:30:28;;;;;;;552.17;142.70;;;6.20;99.90;;;;;;5115868;28;20281;-82
2022/12/15 14:33:02;;;;;;;606.05;156.23;;;6.10;99.90;;;;;;5116297;28;20023;-80
2022/12/15 14:35:34;;;;;;;754.13;163.98;;;6.10;99.90;;;;;;5106974;28;20086;-78
2022/12/15 14:38:04;;;;;;;675.72;157.70;;;6.10;99.90;;;;;;5114649;27;20028;-78
2022/12/15 14:40:33;;;;;;;636.00;160.07;;;6.00;99.90;;;;;;5094981;28;20028;-78
2022/12/15 14:42:59;;;;;;;801.03;168.57;;;5.90;99.90;;;;;;5094191;28;20024;-78
2022/12/15 14:45:27;;;;;;;645.85;155.25;;;5.90;99.90;;;;;;5092565;28;20039;-78
2022/12/15 14:48:00;;;;;;;661.75;162.25;;;5.80;99.90;;;;;;5109151;28;20035;-78
2022/12/15 14:50:27;;;;;;;947.90;182.75;;;5.90;99.90;;;;;;5112823;28;20029;-78
2022/12/15 14:53:10;;;;;;;648.03;164.30;;;5.80;99.90;;;;;;5112200;28;20051;-78
2022/12/15 14:55:38;;;;;;;797.58;171.68;;;5.90;99.90;;;;;;5092538;28;20020;-78
2022/12/15 14:58:30;;;;;;;830.92;179.52;;;5.90;99.90;;;;;;5092507;28;20032;-78
2022/12/15 15:00:57;;;;;;;708.85;165.65;;;5.80;99.90;;;;;;5114241;28;20213;-79
2022/12/15 15:03:38;;;;;;;671.58;165.02;;;5.80;99.90;;;;;;5112867;28;20110;-78
2022/12/15 15:06:10;;;;;;;785.05;172.95;;;5.80;99.90;;;;;;5112571;28;20027;-78
2022/12/15 15:08:44;;;;;;;1073.85;191.13;;;5.90;99.90;;;;;;5112618;28;20020;-78
2022/12/15 15:11:19;;;;;;;1048.50;188.27;;;5.80;99.90;;;;;;5092321;28;20035;-78